createdAt,value
2019-05-26T00:02:45.160Z,6.64
2019-05-26T00:07:49.597Z,6.62
2019-05-26T00:12:54.756Z,6.67
2019-05-26T00:17:58.940Z,6.84
2019-05-26T00:23:03.421Z,6.88
2019-05-26T00:28:07.440Z,6.79
2019-05-26T00:33:11.468Z,6.66
2019-05-26T00:38:15.898Z,6.54
2019-05-26T00:43:19.912Z,6.62
2019-05-26T00:48:23.924Z,6.68
2019-05-26T00:53:28.020Z,6.60
2019-05-26T00:58:32.062Z,6.56
2019-05-26T01:03:36.571Z,6.36
2019-05-26T01:08:40.713Z,6.35
2019-05-26T01:13:45.053Z,6.25
2019-05-26T01:18:49.933Z,6.08
2019-05-26T01:23:54.003Z,5.94
2019-05-26T01:28:58.055Z,5.80
2019-05-26T01:34:02.471Z,5.76
2019-05-26T01:39:07.365Z,5.66
2019-05-26T01:44:11.486Z,5.59
2019-05-26T01:49:15.526Z,5.78
2019-05-26T01:54:19.566Z,5.78
2019-05-26T01:59:23.613Z,5.89
2019-05-26T02:04:27.798Z,5.91
2019-05-26T02:09:31.898Z,5.79
2019-05-26T02:14:35.922Z,5.69
2019-05-26T02:19:39.984Z,5.60
2019-05-26T02:24:44.024Z,5.55
2019-05-26T02:29:48.060Z,5.53
2019-05-26T02:34:52.498Z,5.53
2019-05-26T02:39:56.580Z,5.53
2019-05-26T02:45:00.605Z,5.44
2019-05-26T02:50:05.407Z,5.41
2019-05-26T02:55:10.148Z,5.39
2019-05-26T03:00:15.104Z,5.40
2019-05-26T03:05:19.182Z,5.41
2019-05-26T03:10:23.307Z,5.48
2019-05-26T03:15:27.849Z,5.60
2019-05-26T03:20:36.956Z,5.76
2019-05-26T03:25:41.038Z,5.97
2019-05-26T03:30:45.207Z,6.25
2019-05-26T03:35:49.444Z,6.55
2019-05-26T03:40:53.546Z,6.88
2019-05-26T03:46:16.237Z,7.23
2019-05-26T03:51:20.385Z,7.57
2019-05-26T03:56:24.744Z,7.92
2019-05-26T04:01:29.187Z,8.27
2019-05-26T04:06:33.244Z,8.69
2019-05-26T04:11:37.359Z,8.99
2019-05-26T04:16:41.512Z,9.29
2019-05-26T04:21:46.191Z,9.54
2019-05-26T04:26:50.236Z,9.78
2019-05-26T04:31:54.685Z,10.17
2019-05-26T04:36:59.226Z,11.02
2019-05-26T04:42:03.846Z,12.09
2019-05-26T04:47:07.895Z,13.09
2019-05-26T04:52:12.135Z,13.97
2019-05-26T04:57:16.225Z,15.55
2019-05-26T05:02:20.393Z,17.49
2019-05-26T05:07:28.331Z,19.68
2019-05-26T05:12:30.968Z,21.14
2019-05-26T05:17:35.134Z,21.66
2019-05-26T05:22:39.504Z,22.03
2019-05-26T05:27:43.663Z,22.05
2019-05-26T05:32:48.111Z,22.32
2019-05-26T05:37:52.733Z,23.22
2019-05-26T05:42:56.884Z,22.52
2019-05-26T05:48:03.557Z,21.56
2019-05-26T05:53:08.591Z,22.17
2019-05-26T06:03:18.659Z,20.67
2019-05-26T06:08:21.336Z,20.58
2019-05-26T06:13:25.359Z,20.83
2019-05-26T06:18:29.389Z,21.57
2019-05-26T06:23:36.843Z,22.78
2019-05-26T06:28:40.043Z,23.13
2019-05-26T06:33:44.178Z,24.06
2019-05-26T06:38:49.485Z,24.87
2019-05-26T06:43:53.954Z,24.19
2019-05-26T06:48:58.168Z,22.70
2019-05-26T06:54:02.212Z,24.43
2019-05-26T06:59:06.275Z,26.14
2019-05-26T07:04:10.324Z,24.25
2019-05-26T07:09:14.756Z,24.80
2019-05-26T07:14:36.915Z,24.24
2019-05-26T07:19:41.001Z,25.16
2019-05-26T07:24:45.094Z,25.80
2019-05-26T07:29:49.551Z,26.82
2019-05-26T07:34:53.617Z,26.98
2019-05-26T07:39:57.767Z,28.50
2019-05-26T07:45:01.913Z,26.67
2019-05-26T07:50:06.654Z,26.22
2019-05-26T07:55:11.076Z,24.88
2019-05-26T08:00:15.427Z,24.60
2019-05-26T08:05:19.483Z,24.13
2019-05-26T08:10:23.620Z,24.22
2019-05-26T08:15:27.648Z,24.05
2019-05-26T08:20:31.823Z,24.94
2019-05-26T08:25:37.312Z,25.04
2019-05-26T08:30:41.384Z,24.87
2019-05-26T08:35:45.406Z,24.86
2019-05-26T08:40:49.519Z,25.24
2019-05-26T08:45:54.805Z,25.48
2019-05-26T08:50:58.903Z,24.80
2019-05-26T08:56:03.297Z,25.59
2019-05-26T09:01:07.469Z,26.89
2019-05-26T09:06:11.630Z,26.63
2019-05-26T09:11:15.671Z,25.67
2019-05-26T09:16:20.394Z,24.91
2019-05-26T09:21:24.459Z,24.29
2019-05-26T09:26:29.940Z,23.57
2019-05-26T09:31:34.406Z,25.43
2019-05-26T09:36:38.518Z,23.27
2019-05-26T09:41:42.895Z,23.48
2019-05-26T09:46:47.936Z,24.78
2019-05-26T09:51:51.995Z,26.98
2019-05-26T09:57:17.996Z,25.98
2019-05-26T10:02:22.107Z,24.52
2019-05-26T10:07:26.418Z,24.62
2019-05-26T10:12:30.531Z,25.27
2019-05-26T10:17:34.555Z,25.88
2019-05-26T10:22:57.125Z,25.50
2019-05-26T10:28:01.242Z,24.25
2019-05-26T10:33:05.311Z,24.11
2019-05-26T10:38:11.103Z,23.91
2019-05-26T10:43:15.236Z,24.38
2019-05-26T10:48:19.234Z,26.16
2019-05-26T10:53:23.286Z,25.76
2019-05-26T10:58:46.627Z,25.48
2019-05-26T11:04:08.825Z,24.81
2019-05-26T11:09:12.900Z,25.27
2019-05-26T11:14:16.982Z,24.63
2019-05-26T11:19:21.397Z,24.52
2019-05-26T11:24:26.021Z,24.38
2019-05-26T11:29:30.952Z,25.12
2019-05-26T11:34:35.309Z,25.20
2019-05-26T11:39:39.935Z,24.84
2019-05-26T11:44:44.063Z,25.03
2019-05-26T11:49:50.692Z,25.11
2019-05-26T11:54:54.841Z,25.32
2019-05-26T11:59:58.907Z,25.39
2019-05-26T12:05:03.235Z,25.36
2019-05-26T12:10:07.985Z,25.42
2019-05-26T12:15:13.149Z,25.40
2019-05-26T12:20:18.115Z,24.77
2019-05-26T12:25:22.367Z,24.43
2019-05-26T12:30:34.630Z,24.29
2019-05-26T12:35:44.521Z,23.93
2019-05-26T12:40:48.803Z,24.38
2019-05-26T12:45:53.224Z,24.31
2019-05-26T12:50:57.241Z,24.86
2019-05-26T12:56:03.132Z,24.24
2019-05-26T13:01:07.159Z,23.49
2019-05-26T13:06:11.662Z,23.60
2019-05-26T13:11:16.483Z,23.99
2019-05-26T13:17:02.651Z,24.84
2019-05-26T13:22:16.296Z,25.24
2019-05-26T13:27:19.593Z,25.65
2019-05-26T13:32:32.417Z,25.70
2019-05-26T13:37:50.010Z,25.35
2019-05-26T13:42:54.683Z,24.87
2019-05-26T13:48:04.618Z,24.71
2019-05-26T13:53:27.097Z,24.93
2019-05-26T13:58:41.471Z,24.26
2019-05-26T14:03:54.761Z,24.31
2019-05-26T14:09:02.303Z,24.55
2019-05-26T14:14:14.607Z,24.63
2019-05-26T14:19:37.129Z,24.84
2019-05-26T14:24:53.816Z,24.96
2019-05-26T14:30:02.291Z,24.86
2019-05-26T14:35:14.938Z,24.62
2019-05-26T14:40:21.125Z,24.11
2019-05-26T14:45:33.302Z,23.76
2019-05-26T14:50:49.012Z,24.36
2019-05-26T14:56:15.453Z,25.02
2019-05-26T15:01:27.665Z,25.47
2019-05-26T15:06:41.631Z,25.66
2019-05-26T15:11:53.441Z,24.32
2019-05-26T15:17:20.157Z,24.35
2019-05-26T15:22:31.580Z,24.78
2019-05-26T15:27:39.927Z,23.58
2019-05-26T15:32:49.281Z,24.92
2019-05-26T15:38:09.794Z,26.00
2019-05-26T15:43:14.842Z,24.43
2019-05-26T15:48:27.934Z,23.54
2019-05-26T15:53:37.145Z,23.68
2019-05-26T15:59:03.031Z,23.45
2019-05-26T16:04:13.290Z,23.19
2019-05-26T16:09:24.527Z,23.01
2019-05-26T16:14:41.992Z,23.17
2019-05-26T16:19:54.557Z,23.69
2019-05-26T16:25:04.026Z,23.56
2019-05-26T16:30:15.534Z,23.32
2019-05-26T16:35:26.286Z,23.81
2019-05-26T16:40:46.778Z,24.45
2019-05-26T16:46:14.276Z,24.45
2019-05-26T16:51:38.147Z,25.08
2019-05-26T16:56:56.055Z,24.72
2019-05-26T17:02:17.526Z,24.52
2019-05-26T17:07:25.027Z,24.29
2019-05-26T17:12:58.080Z,24.10
2019-05-26T17:18:08.730Z,24.11
2019-05-26T17:23:12.997Z,23.54
2019-05-26T17:28:17.159Z,22.97
2019-05-26T17:33:21.600Z,23.11
2019-05-26T17:38:26.038Z,22.89
2019-05-26T17:43:30.434Z,22.59
2019-05-26T17:48:34.816Z,22.54
2019-05-26T17:53:38.941Z,22.49
2019-05-26T17:58:43.414Z,22.30
2019-05-26T18:03:47.628Z,21.96
2019-05-26T18:08:51.743Z,21.74
2019-05-26T18:13:56.159Z,21.47
2019-05-26T18:19:01.306Z,21.32
2019-05-26T18:24:05.667Z,21.00
2019-05-26T18:29:09.905Z,20.74
2019-05-26T18:34:14.177Z,20.66
2019-05-26T18:39:18.453Z,20.71
2019-05-26T18:44:22.541Z,20.72
2019-05-26T18:49:26.678Z,20.54
2019-05-26T18:54:31.095Z,20.28
2019-05-26T18:59:35.318Z,20.06
2019-05-26T19:05:01.618Z,19.79
2019-05-26T19:10:13.938Z,19.64
2019-05-26T19:15:21.883Z,19.54
2019-05-26T19:20:27.560Z,19.40
2019-05-26T19:25:31.758Z,19.31
2019-05-26T19:30:35.783Z,19.34
2019-05-26T19:35:40.218Z,19.21
2019-05-26T19:40:44.998Z,19.05
2019-05-26T19:45:49.480Z,18.91
2019-05-26T19:50:55.405Z,18.82
2019-05-26T19:55:59.473Z,18.80
2019-05-26T20:01:03.714Z,18.73
2019-05-26T20:06:08.208Z,18.49
2019-05-26T20:11:13.193Z,18.16
2019-05-26T20:16:20.728Z,18.07
2019-05-26T20:21:25.908Z,18.08
2019-05-26T20:26:29.971Z,18.14
2019-05-26T20:31:34.124Z,18.22
2019-05-26T20:36:39.913Z,18.24
2019-05-26T20:41:44.035Z,18.18
2019-05-26T20:46:48.372Z,18.11
2019-05-26T20:51:53.443Z,18.11
2019-05-26T20:56:58.200Z,18.09
2019-05-26T21:02:03.577Z,18.08
2019-05-26T21:07:08.676Z,18.12
2019-05-26T21:12:12.939Z,18.10
2019-05-26T21:17:17.266Z,18.08
2019-05-26T21:22:21.461Z,18.04
2019-05-26T21:27:25.985Z,17.98
2019-05-26T21:32:31.495Z,17.91
2019-05-26T21:37:36.621Z,17.86
2019-05-26T21:42:41.846Z,17.87
2019-05-26T21:47:45.985Z,17.87
2019-05-26T21:52:50.047Z,17.87
2019-05-26T21:57:54.179Z,17.89
2019-05-26T22:02:58.192Z,17.96
2019-05-26T22:08:05.416Z,18.00
2019-05-26T22:13:09.848Z,17.98
2019-05-26T22:18:13.976Z,17.97
2019-05-26T22:23:18.503Z,17.90
2019-05-26T22:28:22.640Z,17.83
2019-05-26T22:33:27.039Z,17.79
2019-05-26T22:38:31.228Z,17.79
2019-05-26T22:43:35.532Z,17.78
2019-05-26T22:48:39.680Z,17.78
2019-05-26T22:53:44.172Z,17.78
2019-05-26T22:58:48.510Z,17.80
2019-05-26T23:03:52.814Z,17.80
2019-05-26T23:08:56.961Z,17.76
2019-05-26T23:14:01.245Z,17.71
2019-05-26T23:19:18.336Z,17.73
2019-05-26T23:24:10.989Z,17.75
2019-05-26T23:29:15.035Z,17.76
2019-05-26T23:34:19.133Z,17.81
2019-05-26T23:39:23.196Z,17.78
2019-05-26T23:44:27.412Z,17.70
2019-05-26T23:49:31.446Z,17.63
2019-05-26T23:54:36.730Z,17.55
2019-05-26T23:59:40.736Z,17.51
